Time;durP1;ratioP1;P1;durP2;ratioP2;P2;SDS_P1;SDS_P2;PMS_P1;PMS_P2;Temp;Humidity;BMP_temperature;BMP_pressure;BME280_temperature;BME280_humidity;BME280_pressure;Samples;Min_cycle;Max_cycle;Signal;HPM_P1;HPM_P2
2024/01/08 00:00:08;;;;;;;19.20;9.77;;;-1.90;99.90;;;;;;5059649;28;20044;-72
2024/01/08 00:02:34;;;;;;;17.02;7.70;;;-1.90;99.90;;;;;;5060062;28;20043;-71
2024/01/08 00:04:59;;;;;;;21.77;10.20;;;-1.90;99.90;;;;;;5052498;28;20293;-73
2024/01/08 00:07:25;;;;;;;18.63;7.93;;;-1.90;99.90;;;;;;5041677;28;20021;-72
2024/01/08 00:09:51;;;;;;;28.42;11.70;;;-1.50;99.90;;;;;;5058991;28;20054;-72
2024/01/08 00:12:17;;;;;;;22.38;9.85;;;-1.90;99.90;;;;;;5059101;28;20301;-73
2024/01/08 00:14:42;;;;;;;22.00;8.32;;;-1.20;99.90;;;;;;5052024;28;20446;-73
2024/01/08 00:17:08;;;;;;;24.13;11.45;;;-2.00;99.90;;;;;;5059094;28;20025;-73
2024/01/08 00:19:34;;;;;;;24.05;11.00;;;-2.00;99.90;;;;;;5058026;28;20056;-74
2024/01/08 00:22:02;;;;;;;20.88;9.60;;;-1.90;99.90;;;;;;5058293;28;20349;-73
2024/01/08 00:24:28;;;;;;;20.88;9.68;;;-2.00;99.90;;;;;;5060572;28;20044;-73
2024/01/08 00:26:54;;;;;;;17.20;7.97;;;-2.00;99.90;;;;;;5060466;28;20221;-73
2024/01/08 00:29:19;;;;;;;18.30;8.80;;;-1.90;99.90;;;;;;5058557;28;20086;-74
2024/01/08 00:31:45;;;;;;;15.82;9.52;;;-2.00;99.90;;;;;;5059813;28;20249;-73
2024/01/08 00:34:11;;;;;;;14.23;9.02;;;-1.20;99.90;;;;;;5060127;28;20024;-73
2024/01/08 00:36:37;;;;;;;20.75;7.72;;;-2.00;99.90;;;;;;5059731;28;20017;-73
2024/01/08 00:39:03;;;;;;;11.20;5.22;;;-2.00;99.90;;;;;;5060631;28;20089;-74
2024/01/08 00:41:29;;;;;;;19.92;8.93;;;-2.10;99.90;;;;;;5041870;28;20082;-74
2024/01/08 00:43:54;;;;;;;14.63;7.15;;;-1.40;99.90;;;;;;5040680;28;20217;-74
2024/01/08 00:46:20;;;;;;;15.45;9.35;;;-2.10;99.90;;;;;;5059746;28;20278;-73
2024/01/08 00:48:45;;;;;;;14.80;7.45;;;-2.20;99.90;;;;;;5057951;28;20318;-73
2024/01/08 00:51:11;;;;;;;11.93;5.55;;;-2.10;99.90;;;;;;5059618;28;20032;-73
2024/01/08 00:53:37;;;;;;;20.95;8.68;;;-2.00;99.90;;;;;;5040420;28;20035;-73
2024/01/08 00:56:03;;;;;;;16.35;8.10;;;-2.00;99.90;;;;;;5057635;28;20094;-73
2024/01/08 00:58:30;;;;;;;16.00;8.60;;;-2.10;99.90;;;;;;5059801;28;20044;-73
2024/01/08 01:00:56;;;;;;;14.25;6.85;;;-2.10;99.90;;;;;;5060040;28;20036;-73
2024/01/08 01:03:22;;;;;;;8.57;4.28;;;-2.10;99.90;;;;;;5060385;28;20057;-73
2024/01/08 01:05:48;;;;;;;9.68;5.68;;;-2.10;99.90;;;;;;5054449;28;20124;-73
2024/01/08 01:08:13;;;;;;;18.63;9.27;;;-2.10;99.90;;;;;;5059423;28;20029;-73
2024/01/08 01:10:39;;;;;;;14.63;7.70;;;-2.20;99.90;;;;;;5058337;28;20059;-73
2024/01/08 01:13:05;;;;;;;11.50;6.57;;;-1.10;99.90;;;;;;5059567;28;20315;-73
2024/01/08 01:15:30;;;;;;;9.55;5.00;;;-2.20;99.90;;;;;;5060864;28;20332;-73
2024/01/08 01:17:56;;;;;;;10.05;6.55;;;-2.20;99.90;;;;;;5061144;28;20029;-72
2024/01/08 01:20:22;;;;;;;8.77;5.07;;;-2.20;99.90;;;;;;5060262;28;20100;-73
2024/01/08 01:22:48;;;;;;;9.07;5.15;;;-2.20;99.90;;;;;;5060553;28;20282;-73
2024/01/08 01:25:13;;;;;;;11.38;7.10;;;-2.20;99.90;;;;;;5062525;28;20036;-73
2024/01/08 01:27:39;;;;;;;12.30;6.25;;;-2.30;99.90;;;;;;5060398;28;20260;-72
2024/01/08 01:30:06;;;;;;;5.72;4.20;;;-1.20;99.90;;;;;;5060874;28;20199;-72
2024/01/08 01:32:32;;;;;;;8.32;5.72;;;-2.30;99.90;;;;;;5060502;28;20048;-73
2024/01/08 01:34:58;;;;;;;10.77;5.45;;;-2.30;99.90;;;;;;5058180;28;20060;-72
2024/01/08 01:37:23;;;;;;;4.80;4.15;;;-2.20;99.90;;;;;;5059892;28;20017;-72
2024/01/08 01:39:49;;;;;;;10.20;6.75;;;-2.30;99.90;;;;;;5059672;28;20091;-72
2024/01/08 01:42:15;;;;;;;7.18;4.38;;;-2.40;99.90;;;;;;5059861;28;20209;-73
2024/01/08 01:44:41;;;;;;;13.82;5.22;;;-2.40;99.90;;;;;;5060312;28;20017;-73
2024/01/08 01:47:07;;;;;;;11.68;8.32;;;-2.30;99.90;;;;;;5059514;28;20049;-72
2024/01/08 01:49:33;;;;;;;9.25;3.95;;;-2.40;99.90;;;;;;5059815;28;20033;-72
2024/01/08 01:51:59;;;;;;;11.05;6.25;;;-2.30;99.90;;;;;;5059168;28;20087;-72
2024/01/08 01:54:26;;;;;;;6.38;4.00;;;-2.10;99.90;;;;;;5059758;28;20021;-72
2024/01/08 01:57:00;;;;;;;9.40;6.18;;;-2.40;99.90;;;;;;5059325;28;20348;-72
2024/01/08 01:59:29;;;;;;;7.57;4.55;;;-2.30;99.90;;;;;;5057946;28;20044;-73
2024/01/08 02:01:57;;;;;;;9.25;4.68;;;-2.40;99.90;;;;;;5059367;28;20082;-72
2024/01/08 02:04:25;;;;;;;9.30;4.90;;;-2.40;99.90;;;;;;5053998;28;20352;-73
2024/01/08 02:06:51;;;;;;;10.77;7.28;;;-2.40;99.90;;;;;;5059023;28;20029;-73
2024/01/08 02:09:18;;;;;;;4.95;3.30;;;-2.40;99.90;;;;;;5057412;28;20217;-73
2024/01/08 02:11:44;;;;;;;5.18;4.28;;;-2.40;99.90;;;;;;5056273;28;20036;-71
2024/01/08 02:14:13;;;;;;;10.63;5.75;;;-2.40;99.90;;;;;;5056332;28;20044;-72
2024/01/08 02:16:39;;;;;;;13.23;7.40;;;-2.40;99.90;;;;;;5058155;28;20017;-74
2024/01/08 02:19:05;;;;;;;8.80;4.35;;;-2.50;99.90;;;;;;5056978;28;20217;-73
2024/01/08 02:21:31;;;;;;;10.80;6.65;;;-2.40;99.90;;;;;;5061849;28;20351;-72
2024/01/08 02:23:57;;;;;;;10.13;6.60;;;-2.40;99.90;;;;;;5061983;28;20028;-73
2024/01/08 02:26:23;;;;;;;8.85;5.10;;;-2.50;99.90;;;;;;5061686;28;20056;-73
2024/01/08 02:28:48;;;;;;;10.23;5.90;;;-2.50;99.90;;;;;;5060826;28;20485;-73
2024/01/08 02:31:14;;;;;;;7.43;4.13;;;-2.50;99.90;;;;;;5044629;28;20029;-73
2024/01/08 02:33:39;;;;;;;7.50;2.88;;;-2.50;99.90;;;;;;5061916;28;20017;-74
2024/01/08 02:36:05;;;;;;;12.60;7.55;;;-2.50;99.90;;;;;;5063070;28;20048;-73
2024/01/08 02:38:31;;;;;;;11.50;6.82;;;-2.50;99.90;;;;;;5062574;28;20225;-73
2024/01/08 02:40:57;;;;;;;11.75;7.68;;;-2.50;99.90;;;;;;5063241;28;20044;-73
2024/01/08 02:43:24;;;;;;;10.32;5.53;;;-2.50;99.90;;;;;;5063298;28;20013;-73
2024/01/08 02:45:50;;;;;;;9.07;5.15;;;-2.50;99.90;;;;;;5061011;28;20347;-73
2024/01/08 02:48:15;;;;;;;10.45;7.45;;;-2.50;99.90;;;;;;5062354;28;20021;-73
2024/01/08 02:50:41;;;;;;;6.95;4.25;;;-2.40;99.90;;;;;;5062678;28;20321;-73
2024/01/08 02:53:06;;;;;;;5.65;3.72;;;-2.50;99.90;;;;;;5062405;28;20036;-73
2024/01/08 02:55:32;;;;;;;8.68;4.75;;;-2.50;99.90;;;;;;5061865;28;20028;-73
2024/01/08 02:57:58;;;;;;;6.30;4.25;;;-2.50;99.90;;;;;;5044445;28;20216;-73
2024/01/08 03:00:23;;;;;;;7.10;3.70;;;-2.50;99.90;;;;;;5060646;28;20048;-73
2024/01/08 03:02:49;;;;;;;9.80;4.45;;;-2.50;99.90;;;;;;5061376;28;20033;-73
2024/01/08 03:05:15;;;;;;;8.18;5.05;;;-2.60;99.90;;;;;;5062248;28;20033;-73
2024/01/08 03:07:40;;;;;;;9.95;5.00;;;-2.60;99.90;;;;;;5062304;28;20062;-73
2024/01/08 03:10:06;;;;;;;6.97;4.15;;;-2.70;99.90;;;;;;5043552;28;20079;-73
2024/01/08 03:12:32;;;;;;;7.85;5.07;;;-2.70;99.90;;;;;;5061967;28;20305;-73
2024/01/08 03:14:57;;;;;;;8.85;5.47;;;-2.70;99.90;;;;;;5061813;28;20108;-73
2024/01/08 03:17:23;;;;;;;15.38;7.25;;;-2.70;99.90;;;;;;5044142;28;20028;-73
2024/01/08 03:19:49;;;;;;;10.45;5.85;;;-2.70;99.90;;;;;;5061539;28;20048;-73
2024/01/08 03:22:14;;;;;;;10.25;6.38;;;-2.70;99.90;;;;;;5061911;28;20080;-73
2024/01/08 03:24:40;;;;;;;8.63;5.75;;;-2.70;99.90;;;;;;5044576;28;20317;-73
2024/01/08 03:27:06;;;;;;;8.85;6.97;;;-2.70;99.90;;;;;;5044927;28;20200;-73
2024/01/08 03:29:31;;;;;;;15.48;6.00;;;-2.80;99.90;;;;;;5062889;28;20029;-73
2024/01/08 03:31:57;;;;;;;9.77;5.30;;;-2.80;99.90;;;;;;5061311;28;20207;-73
2024/01/08 03:34:23;;;;;;;14.57;7.75;;;-2.80;99.90;;;;;;5043759;28;20028;-73
2024/01/08 03:36:50;;;;;;;6.47;3.97;;;-2.80;99.90;;;;;;5044231;28;20028;-73
2024/01/08 03:39:16;;;;;;;13.40;7.95;;;-2.80;99.90;;;;;;5043752;28;20040;-73
2024/01/08 03:41:42;;;;;;;11.82;6.38;;;-2.90;99.90;;;;;;5061195;28;20321;-73
2024/01/08 03:44:09;;;;;;;9.85;6.10;;;-2.80;99.90;;;;;;5061029;28;20163;-73
2024/01/08 03:46:35;;;;;;;14.48;7.85;;;-2.80;99.90;;;;;;5061253;28;20385;-73
2024/01/08 03:49:02;;;;;;;6.93;5.03;;;-2.90;99.90;;;;;;5061020;28;20279;-73
2024/01/08 03:51:27;;;;;;;15.20;7.93;;;-2.90;99.90;;;;;;5062254;28;20086;-73
2024/01/08 03:53:53;;;;;;;13.45;8.20;;;-2.90;99.90;;;;;;5061485;28;20305;-73
2024/01/08 03:56:19;;;;;;;14.90;7.57;;;-2.90;99.90;;;;;;5061393;28;20040;-73
2024/01/08 03:58:45;;;;;;;14.90;6.95;;;-2.90;99.90;;;;;;5060575;28;20013;-74
2024/01/08 04:01:11;;;;;;;17.33;7.60;;;-2.90;99.90;;;;;;5060015;28;20232;-74
2024/01/08 04:03:37;;;;;;;15.98;8.93;;;-2.90;99.90;;;;;;5061612;28;20237;-73
2024/01/08 04:06:03;;;;;;;12.25;6.82;;;-3.00;99.90;;;;;;5061353;28;20304;-73
2024/01/08 04:08:29;;;;;;;14.55;6.20;;;-3.00;99.90;;;;;;5060302;28;20051;-73
2024/01/08 04:10:54;;;;;;;11.40;6.13;;;-3.00;99.90;;;;;;5060225;28;20029;-73
2024/01/08 04:13:20;;;;;;;15.13;9.23;;;-3.00;99.90;;;;;;5060213;28;20074;-73
2024/01/08 04:15:46;;;;;;;13.82;7.72;;;-3.00;99.90;;;;;;5060196;28;20021;-72
2024/01/08 04:18:13;;;;;;;16.13;9.57;;;-3.00;99.90;;;;;;5061255;28;20092;-73
2024/01/08 04:20:39;;;;;;;19.50;11.50;;;-3.00;99.90;;;;;;5060622;28;20250;-73
2024/01/08 04:23:05;;;;;;;18.27;9.30;;;-3.00;99.90;;;;;;5060854;28;20321;-73
2024/01/08 04:25:31;;;;;;;12.95;7.45;;;-2.90;99.90;;;;;;5061289;28;20383;-73
2024/01/08 04:27:56;;;;;;;13.10;7.50;;;-3.00;99.90;;;;;;5061300;28;20025;-73
2024/01/08 04:30:22;;;;;;;16.15;8.15;;;-2.10;99.90;;;;;;5060300;28;20021;-72
2024/01/08 04:32:48;;;;;;;18.45;8.90;;;-3.00;99.90;;;;;;5061048;28;20240;-73
2024/01/08 04:35:14;;;;;;;12.43;6.57;;;-3.00;99.90;;;;;;5059693;28;20017;-73
2024/01/08 04:37:40;;;;;;;15.90;7.53;;;-3.00;99.90;;;;;;5060200;28;20048;-74
2024/01/08 04:40:07;;;;;;;17.02;10.98;;;-3.00;99.90;;;;;;5059716;28;20103;-73
2024/01/08 04:42:33;;;;;;;7.03;5.15;;;-3.10;99.90;;;;;;5060493;28;20260;-73
2024/01/08 04:44:59;;;;;;;14.05;8.95;;;-3.00;99.90;;;;;;5059835;28;20075;-73
2024/01/08 04:47:24;;;;;;;9.77;6.97;;;-3.00;99.90;;;;;;5061723;28;20040;-73
2024/01/08 04:49:50;;;;;;;21.20;10.32;;;-3.00;99.90;;;;;;5061532;28;20186;-73
2024/01/08 04:52:16;;;;;;;16.77;8.10;;;-3.00;99.90;;;;;;5057418;28;20029;-73
2024/01/08 04:54:42;;;;;;;12.00;5.85;;;-3.00;99.90;;;;;;5050293;28;20044;-73
2024/01/08 04:57:08;;;;;;;13.35;6.78;;;-3.00;99.90;;;;;;5033205;28;20020;-72
2024/01/08 04:59:40;;;;;;;17.00;8.75;;;-3.00;99.90;;;;;;5050826;28;20241;-73
2024/01/08 05:02:05;;;;;;;15.98;9.35;;;-3.00;99.90;;;;;;5047754;28;20031;-73
2024/01/08 05:04:31;;;;;;;15.82;7.82;;;-2.10;99.90;;;;;;5048808;28;20101;-73
2024/01/08 05:06:56;;;;;;;10.15;5.90;;;-2.90;99.90;;;;;;5051993;28;20025;-73
2024/01/08 05:09:22;;;;;;;11.63;6.80;;;-3.00;99.90;;;;;;5047762;28;20100;-73
2024/01/08 05:11:48;;;;;;;8.35;5.15;;;-3.00;99.90;;;;;;5028328;28;20470;-73
2024/01/08 05:14:13;;;;;;;13.20;8.73;;;-3.00;99.90;;;;;;5048035;28;20025;-73
2024/01/08 05:16:39;;;;;;;7.15;5.05;;;-3.00;99.90;;;;;;5049819;28;20025;-73
2024/01/08 05:19:05;;;;;;;8.95;4.95;;;-3.00;99.90;;;;;;5048079;28;20565;-73
2024/01/08 05:21:30;;;;;;;16.75;8.25;;;-3.00;99.90;;;;;;5048142;28;20124;-73
2024/01/08 05:23:56;;;;;;;12.68;6.03;;;-3.00;99.90;;;;;;5048401;28;20353;-73
2024/01/08 05:26:22;;;;;;;14.35;6.47;;;-3.00;99.90;;;;;;5047998;28;20021;-73
2024/01/08 05:28:48;;;;;;;17.88;9.48;;;-2.50;99.90;;;;;;5049017;28;20028;-73
2024/01/08 05:31:13;;;;;;;15.40;7.38;;;-3.00;99.90;;;;;;5048892;28;20389;-73
2024/01/08 05:33:39;;;;;;;10.15;4.95;;;-3.00;99.90;;;;;;5047868;28;20027;-72
2024/01/08 05:36:06;;;;;;;13.88;6.15;;;-3.00;99.90;;;;;;5047663;28;20032;-73
2024/01/08 05:38:31;;;;;;;14.18;7.38;;;-3.00;99.90;;;;;;5047741;28;20028;-73
2024/01/08 05:40:57;;;;;;;12.80;7.07;;;-3.00;99.90;;;;;;5047193;28;20037;-73
2024/01/08 05:43:22;;;;;;;13.63;7.07;;;-3.00;99.90;;;;;;5029696;28;20029;-73
2024/01/08 05:45:49;;;;;;;13.93;6.40;;;-3.00;99.90;;;;;;5048167;28;20029;-73
2024/01/08 05:48:15;;;;;;;15.05;6.30;;;-3.00;99.90;;;;;;5030416;28;20024;-74
2024/01/08 05:50:41;;;;;;;14.23;7.57;;;-3.00;99.90;;;;;;5031282;28;20021;-73
2024/01/08 05:53:06;;;;;;;11.45;5.20;;;-3.00;99.90;;;;;;5049247;28;20474;-73
2024/01/08 05:55:32;;;;;;;12.70;5.82;;;-2.90;99.90;;;;;;5051126;28;20025;-73
2024/01/08 05:57:58;;;;;;;13.38;7.07;;;-2.90;99.90;;;;;;5052983;28;20029;-73
2024/01/08 06:00:23;;;;;;;13.43;6.50;;;-3.00;99.90;;;;;;5051783;28;20087;-73
2024/01/08 06:02:49;;;;;;;12.88;6.00;;;-3.00;99.90;;;;;;5052943;28;20416;-74
2024/01/08 06:05:15;;;;;;;11.93;5.88;;;-2.90;99.90;;;;;;5051935;28;20449;-73
2024/01/08 06:07:41;;;;;;;7.78;4.60;;;-2.90;99.90;;;;;;5053136;28;20397;-74
2024/01/08 06:10:07;;;;;;;11.77;5.93;;;-2.90;99.90;;;;;;5053036;28;20029;-73
2024/01/08 06:12:32;;;;;;;8.90;5.40;;;-2.90;99.90;;;;;;5054458;28;20539;-74
2024/01/08 06:14:58;;;;;;;8.95;5.15;;;-2.90;99.90;;;;;;5054257;28;20024;-75
2024/01/08 06:17:24;;;;;;;7.05;3.42;;;-3.00;99.90;;;;;;5059199;28;20298;-76
2024/01/08 06:19:49;;;;;;;8.98;5.32;;;-2.90;99.90;;;;;;5060883;28;20091;-75
2024/01/08 06:22:15;;;;;;;13.35;6.03;;;-2.90;99.90;;;;;;5058320;28;20059;-72
2024/01/08 06:24:41;;;;;;;5.75;3.13;;;-2.90;99.90;;;;;;5052229;28;20465;-72
2024/01/08 06:27:07;;;;;;;14.07;5.70;;;-2.80;99.90;;;;;;5054466;28;20039;-72
2024/01/08 06:29:32;;;;;;;11.48;5.15;;;-2.90;99.90;;;;;;5053378;28;20021;-72
2024/01/08 06:31:59;;;;;;;16.42;5.72;;;-2.90;99.90;;;;;;5052065;28;20044;-73
2024/01/08 06:34:25;;;;;;;9.63;4.78;;;-2.80;99.90;;;;;;5051957;28;20029;-71
2024/01/08 06:36:51;;;;;;;11.52;6.25;;;-2.90;99.90;;;;;;5051984;28;20079;-72
2024/01/08 06:39:17;;;;;;;16.48;7.97;;;-2.90;99.90;;;;;;5052369;28;20029;-72
2024/01/08 06:41:43;;;;;;;10.30;5.57;;;-2.90;99.90;;;;;;5050761;28;20025;-73
2024/01/08 06:44:09;;;;;;;11.95;6.88;;;-2.90;99.90;;;;;;5052602;28;20108;-71
2024/01/08 06:46:34;;;;;;;10.88;5.95;;;-2.90;99.90;;;;;;5052629;28;20103;-72
2024/01/08 06:49:00;;;;;;;11.68;6.18;;;-2.80;99.90;;;;;;5052326;28;20017;-74
2024/01/08 06:51:26;;;;;;;8.30;4.63;;;-2.80;99.90;;;;;;5052384;28;20025;-73
2024/01/08 06:53:52;;;;;;;10.52;5.82;;;-2.90;99.90;;;;;;5050721;28;20053;-73
2024/01/08 06:56:17;;;;;;;8.20;4.18;;;-2.80;99.90;;;;;;5052141;28;20021;-76
2024/01/08 06:58:43;;;;;;;7.75;4.93;;;-2.80;99.90;;;;;;5051832;28;20176;-72
2024/01/08 07:01:09;;;;;;;10.07;6.55;;;-2.80;99.90;;;;;;5052038;28;20465;-72
2024/01/08 07:03:35;;;;;;;7.47;4.80;;;-2.80;99.90;;;;;;5033947;28;20021;-70
2024/01/08 07:06:01;;;;;;;9.57;3.88;;;-2.70;99.90;;;;;;5033223;28;20429;-70
2024/01/08 07:08:27;;;;;;;7.43;3.63;;;-2.70;99.90;;;;;;5051779;28;20131;-74
2024/01/08 07:10:53;;;;;;;7.53;4.88;;;-2.80;99.90;;;;;;5033374;28;20143;-74
2024/01/08 07:13:18;;;;;;;9.50;5.97;;;-2.70;99.90;;;;;;5052004;28;20572;-72
2024/01/08 07:15:48;;;;;;;9.35;5.28;;;-2.80;99.90;;;;;;5051946;28;20078;-72
2024/01/08 07:18:20;;;;;;;8.00;4.13;;;-2.80;99.90;;;;;;5052084;28;20100;-74
2024/01/08 07:20:47;;;;;;;6.72;3.90;;;-2.70;99.90;;;;;;5051434;28;20049;-72
2024/01/08 07:23:15;;;;;;;9.98;5.50;;;-2.70;99.90;;;;;;5051803;28;20027;-72
2024/01/08 07:25:42;;;;;;;15.30;7.07;;;-2.70;99.90;;;;;;5051933;28;20354;-72
2024/01/08 07:28:11;;;;;;;7.68;4.03;;;-2.70;99.90;;;;;;5034467;28;20032;-71
2024/01/08 07:30:37;;;;;;;12.63;5.00;;;-2.70;99.90;;;;;;5054458;28;20028;-75
2024/01/08 07:33:04;;;;;;;10.48;5.72;;;-2.70;99.90;;;;;;5052459;28;20044;-78
2024/01/08 07:35:29;;;;;;;7.22;4.53;;;-2.70;99.90;;;;;;5052085;28;20025;-76
2024/01/08 07:37:55;;;;;;;8.10;4.97;;;-2.70;99.90;;;;;;5052757;28;20110;-74
2024/01/08 07:40:25;;;;;;;5.22;4.75;;;-2.60;99.90;;;;;;5052024;28;20040;-70
2024/01/08 07:42:55;;;;;;;9.52;4.65;;;-2.70;99.90;;;;;;5033072;28;20028;-70
2024/01/08 07:45:25;;;;;;;6.72;4.20;;;-2.60;99.90;;;;;;5051280;28;20656;-71
2024/01/08 07:47:50;;;;;;;4.57;2.85;;;-2.60;99.90;;;;;;5033395;28;20114;-72
2024/01/08 07:50:17;;;;;;;7.03;4.25;;;-2.60;99.90;;;;;;5051275;28;20028;-74
2024/01/08 07:52:43;;;;;;;5.40;3.33;;;-2.60;99.90;;;;;;5051175;28;20060;-74
2024/01/08 07:55:09;;;;;;;7.18;4.25;;;-2.60;99.90;;;;;;5051074;28;20404;-72
2024/01/08 07:57:35;;;;;;;5.32;3.42;;;-2.60;99.90;;;;;;5049531;28;20029;-72
2024/01/08 08:00:01;;;;;;;9.38;4.55;;;-2.60;99.90;;;;;;5049417;28;20037;-73
2024/01/08 08:02:27;;;;;;;5.57;2.95;;;-2.50;99.90;;;;;;5048268;28;20025;-77
2024/01/08 08:04:53;;;;;;;10.23;6.07;;;-2.50;99.90;;;;;;5051587;28;20105;-75
2024/01/08 08:07:19;;;;;;;5.70;3.00;;;-2.50;99.90;;;;;;5050465;28;20470;-77
2024/01/08 08:09:45;;;;;;;6.03;4.53;;;-2.50;99.90;;;;;;5058137;28;20063;-77
2024/01/08 08:12:11;;;;;;;11.25;4.78;;;-2.50;99.90;;;;;;5052444;28;20027;-76
2024/01/08 08:14:37;;;;;;;6.28;3.60;;;-2.50;99.90;;;;;;5048173;28;20024;-75
2024/01/08 08:17:06;;;;;;;11.65;3.75;;;-2.50;99.90;;;;;;5049557;28;20017;-76
2024/01/08 08:19:31;;;;;;;11.45;6.15;;;-2.50;99.90;;;;;;5050558;28;20064;-76
2024/01/08 08:21:57;;;;;;;6.75;3.85;;;-2.50;99.90;;;;;;5049624;28;20053;-76
2024/01/08 08:24:24;;;;;;;8.75;4.40;;;-2.50;99.90;;;;;;5049607;28;20053;-77
2024/01/08 08:26:50;;;;;;;14.60;6.50;;;-2.50;99.90;;;;;;5047824;28;20440;-76
2024/01/08 08:29:16;;;;;;;8.07;4.75;;;-2.50;99.90;;;;;;5049574;28;20044;-76
2024/01/08 08:31:42;;;;;;;6.95;4.13;;;-2.40;99.90;;;;;;5049080;28;20495;-76
2024/01/08 08:34:09;;;;;;;9.98;5.35;;;-2.50;99.90;;;;;;5049517;28;20033;-77
2024/01/08 08:36:37;;;;;;;7.40;3.58;;;-2.40;99.90;;;;;;5051290;28;20048;-75
2024/01/08 08:39:03;;;;;;;9.75;4.82;;;-2.40;99.90;;;;;;5049178;28;20029;-72
2024/01/08 08:41:29;;;;;;;7.53;5.10;;;-2.40;99.90;;;;;;5049991;28;20444;-73
2024/01/08 08:43:54;;;;;;;10.30;5.10;;;-2.40;99.90;;;;;;5050525;28;20101;-77
2024/01/08 08:46:20;;;;;;;6.57;5.43;;;-2.40;99.90;;;;;;5049308;28;20029;-75
2024/01/08 08:48:46;;;;;;;7.53;4.80;;;-2.30;99.90;;;;;;5050283;28;20104;-71
2024/01/08 08:51:11;;;;;;;6.70;4.55;;;-2.30;99.90;;;;;;5050025;28;20021;-72
2024/01/08 08:53:37;;;;;;;9.63;4.57;;;-2.20;99.90;;;;;;5050035;28;20103;-72
2024/01/08 08:56:04;;;;;;;12.40;6.20;;;-2.10;99.90;;;;;;5049674;28;20048;-72
2024/01/08 08:58:30;;;;;;;9.52;5.65;;;-2.10;99.90;;;;;;5050292;28;20021;-71
2024/01/08 09:00:56;;;;;;;11.00;6.07;;;-2.20;99.90;;;;;;5049580;28;20129;-72
2024/01/08 09:03:23;;;;;;;8.10;5.07;;;-1.30;99.90;;;;;;5049998;28;20117;-72
2024/01/08 09:05:49;;;;;;;7.97;5.25;;;-2.30;99.90;;;;;;5049969;28;20025;-74
2024/01/08 09:08:16;;;;;;;11.38;5.55;;;-2.30;99.90;;;;;;5049766;28;20040;-72
2024/01/08 09:10:42;;;;;;;9.10;5.32;;;-2.20;99.90;;;;;;5049439;28;21047;-71
2024/01/08 09:13:07;;;;;;;7.28;4.72;;;-2.20;99.90;;;;;;5049738;28;20021;-72
2024/01/08 09:15:33;;;;;;;8.02;4.78;;;-2.20;99.90;;;;;;5049950;28;20059;-72
2024/01/08 09:17:59;;;;;;;8.90;4.97;;;-2.20;99.90;;;;;;5049819;28;20029;-73
2024/01/08 09:20:24;;;;;;;8.07;5.13;;;-2.20;99.90;;;;;;5049613;28;20409;-72
2024/01/08 09:22:50;;;;;;;8.10;4.55;;;-2.10;99.90;;;;;;5049486;28;20044;-73
2024/01/08 09:25:16;;;;;;;8.93;5.50;;;-2.00;99.90;;;;;;5049151;28;20090;-74
2024/01/08 09:27:42;;;;;;;9.07;4.68;;;-2.00;99.90;;;;;;5049802;28;20094;-74
2024/01/08 09:30:08;;;;;;;9.35;4.25;;;-1.40;99.90;;;;;;5050226;28;20486;-72
2024/01/08 09:32:34;;;;;;;7.60;4.45;;;-2.00;99.90;;;;;;5051128;28;20033;-72
2024/01/08 09:35:00;;;;;;;11.55;6.05;;;-2.00;99.90;;;;;;5051765;28;20389;-77
2024/01/08 09:37:25;;;;;;;13.73;5.30;;;-1.60;99.90;;;;;;5053439;28;20024;-75
2024/01/08 09:39:52;;;;;;;11.25;6.10;;;-0.90;99.90;;;;;;5052772;28;20090;-76
2024/01/08 09:42:20;;;;;;;9.23;4.65;;;-1.90;99.90;;;;;;5049899;28;20048;-75
2024/01/08 09:44:49;;;;;;;8.90;4.65;;;-1.80;99.90;;;;;;5049655;28;20017;-75
2024/01/08 09:47:18;;;;;;;12.65;5.55;;;-1.80;99.90;;;;;;5055195;28;20044;-75
2024/01/08 09:49:45;;;;;;;7.57;4.68;;;-1.70;99.90;;;;;;5037214;28;20025;-73
2024/01/08 09:52:13;;;;;;;6.47;4.00;;;-1.70;99.90;;;;;;5056108;28;20078;-73
2024/01/08 09:54:41;;;;;;;9.85;4.05;;;-1.80;99.90;;;;;;5056273;28;20029;-74
2024/01/08 09:57:08;;;;;;;10.65;5.05;;;-1.80;99.90;;;;;;5047999;28;20144;-71
2024/01/08 09:59:35;;;;;;;6.32;4.18;;;-1.80;99.90;;;;;;5048912;28;20076;-72
2024/01/08 10:02:00;;;;;;;8.50;4.97;;;-1.80;99.90;;;;;;5047675;28;20017;-72
2024/01/08 10:04:26;;;;;;;8.52;4.57;;;-1.80;99.90;;;;;;5048960;28;20036;-72
2024/01/08 10:07:06;;;;;;;8.15;4.63;;;-1.60;99.90;;;;;;5049154;28;20449;-72
2024/01/08 10:09:32;;;;;;;9.70;5.28;;;-1.60;99.90;;;;;;5049038;28;20021;-72
2024/01/08 10:11:58;;;;;;;9.85;5.18;;;-1.70;99.90;;;;;;5048608;28;20028;-71
2024/01/08 10:14:25;;;;;;;10.98;4.32;;;-1.60;99.90;;;;;;5049046;28;20018;-72
2024/01/08 10:16:51;;;;;;;6.30;3.72;;;-1.70;99.90;;;;;;5049037;28;20025;-71
2024/01/08 10:19:18;;;;;;;7.72;3.65;;;-1.70;99.90;;;;;;5048886;28;20040;-71
2024/01/08 10:21:45;;;;;;;5.32;3.30;;;-1.40;99.90;;;;;;5048553;28;20368;-72
2024/01/08 10:24:10;;;;;;;6.70;3.75;;;-1.50;99.90;;;;;;5048920;28;20025;-71
2024/01/08 10:26:39;;;;;;;5.68;3.95;;;-1.50;99.90;;;;;;5048628;28;20350;-71
2024/01/08 10:29:09;;;;;;;7.78;4.30;;;-1.50;99.90;;;;;;5047789;28;20114;-71
2024/01/08 10:31:35;;;;;;;7.15;4.22;;;-1.50;99.90;;;;;;5048863;28;20057;-71
2024/01/08 10:34:06;;;;;;;8.27;4.43;;;-1.40;99.90;;;;;;5047366;28;20118;-71
2024/01/08 10:36:33;;;;;;;7.68;4.72;;;-1.40;99.90;;;;;;5048614;28;20017;-71
2024/01/08 10:39:03;;;;;;;6.22;4.03;;;-1.50;99.90;;;;;;5047136;28;20029;-71
2024/01/08 10:41:28;;;;;;;;;;;-1.40;99.90;;;;;;5049945;28;20025;-71
2024/01/08 10:43:54;;;;;;;11.38;6.07;;;-1.50;99.90;;;;;;5052640;28;19912;-73
2024/01/08 10:46:26;;;;;;;11.73;6.03;;;-0.50;99.90;;;;;;5052466;28;20600;-74
2024/01/08 10:48:52;;;;;;;15.32;7.45;;;-1.00;99.90;;;;;;5034312;28;20413;-71
2024/01/08 10:51:18;;;;;;;18.63;8.63;;;-1.00;99.90;;;;;;5050524;28;20021;-71
2024/01/08 10:53:45;;;;;;;10.40;5.90;;;-0.90;99.90;;;;;;5050916;28;20032;-71
2024/01/08 10:56:18;;;;;;;9.65;5.55;;;-0.90;99.90;;;;;;5051940;28;20028;-71
2024/01/08 10:59:10;;;;;;;9.43;4.65;;;-0.90;99.90;;;;;;5052282;28;20044;-75
2024/01/08 11:01:36;;;;;;;7.90;4.25;;;-0.90;99.90;;;;;;5043127;28;20063;-71
2024/01/08 11:04:03;;;;;;;8.65;4.32;;;-0.90;99.90;;;;;;5052125;28;20030;-74
2024/01/08 11:06:30;;;;;;;6.32;4.20;;;-0.90;99.90;;;;;;5052125;28;20027;-71
2024/01/08 11:09:00;;;;;;;8.30;5.78;;;-1.10;99.90;;;;;;5052057;28;20024;-72
2024/01/08 11:11:26;;;;;;;6.85;4.43;;;-1.00;99.90;;;;;;5051498;28;20513;-74
2024/01/08 11:13:52;;;;;;;7.43;4.35;;;-0.90;99.90;;;;;;5034111;28;20147;-74
2024/01/08 11:16:39;;;;;;;7.13;4.50;;;-0.80;99.90;;;;;;5052292;28;20029;-75
2024/01/08 11:19:17;;;;;;;6.53;4.25;;;-0.80;99.90;;;;;;5052070;28;20059;-71
2024/01/08 11:21:43;;;;;;;9.00;5.20;;;-0.70;99.90;;;;;;5052326;28;20126;-72
2024/01/08 11:24:09;;;;;;;7.15;4.25;;;-0.80;99.90;;;;;;5052673;28;20025;-74
2024/01/08 11:26:40;;;;;;;7.15;3.88;;;-1.00;99.90;;;;;;5051754;28;20265;-74
2024/01/08 11:29:11;;;;;;;7.40;3.47;;;-1.10;99.90;;;;;;5052409;28;20017;-73
2024/01/08 11:31:48;;;;;;;7.93;3.75;;;-1.10;99.90;;;;;;5051914;28;20051;-74
2024/01/08 11:34:41;;;;;;;6.55;4.03;;;-1.30;99.90;;;;;;5051079;28;20060;-74
2024/01/08 11:37:13;;;;;;;7.60;4.28;;;-1.20;99.90;;;;;;5053771;28;20025;-73
2024/01/08 11:39:40;;;;;;;10.20;3.30;;;-1.30;99.90;;;;;;5051470;28;20039;-75
2024/01/08 11:42:07;;;;;;;6.18;4.20;;;-1.30;99.90;;;;;;5051417;28;20044;-74
2024/01/08 11:44:33;;;;;;;6.47;4.47;;;-1.40;99.90;;;;;;5051307;28;20099;-75
2024/01/08 11:46:59;;;;;;;7.90;4.15;;;-1.40;99.90;;;;;;5051180;28;20024;-74
2024/01/08 11:49:25;;;;;;;7.50;3.72;;;-1.40;99.90;;;;;;5033331;28;20094;-75
2024/01/08 11:51:55;;;;;;;5.93;3.70;;;-1.40;99.90;;;;;;5050942;28;20053;-72
2024/01/08 11:54:21;;;;;;;11.85;4.47;;;-0.50;99.90;;;;;;5051616;28;20037;-74
2024/01/08 11:56:47;;;;;;;9.45;4.88;;;-0.40;99.90;;;;;;5051324;28;20027;-75
2024/01/08 11:59:12;;;;;;;18.92;7.25;;;-1.20;99.90;;;;;;5049672;28;20519;-75
2024/01/08 12:01:38;;;;;;;2.83;2.47;;;-1.40;99.90;;;;;;5051108;28;20021;-72
2024/01/08 12:04:04;;;;;;;8.05;3.80;;;-1.40;99.90;;;;;;5050622;28;20033;-72
2024/01/08 12:06:29;;;;;;;6.93;3.83;;;-1.40;99.90;;;;;;5049741;28;20028;-71
2024/01/08 12:08:56;;;;;;;5.90;3.55;;;-1.40;99.90;;;;;;5050646;28;20033;-72
2024/01/08 12:11:25;;;;;;;5.88;3.78;;;-1.40;99.90;;;;;;5048907;28;20472;-74
2024/01/08 12:13:54;;;;;;;10.75;3.65;;;-1.30;99.90;;;;;;5049124;28;20124;-72
2024/01/08 12:16:22;;;;;;;3.75;3.00;;;-1.40;99.90;;;;;;5050576;28;20143;-72
2024/01/08 12:18:48;;;;;;;5.47;3.83;;;-1.00;99.90;;;;;;5049419;28;20043;-71
2024/01/08 12:21:14;;;;;;;7.68;4.72;;;-0.70;99.90;;;;;;5049039;28;20052;-71
2024/01/08 12:23:40;;;;;;;4.72;3.05;;;-1.30;99.90;;;;;;5032851;28;20021;-71
2024/01/08 12:26:06;;;;;;;7.75;3.65;;;-1.60;99.90;;;;;;5048565;28;20093;-71
2024/01/08 12:28:33;;;;;;;8.77;5.80;;;-1.60;99.90;;;;;;5049053;28;20029;-72
2024/01/08 12:30:59;;;;;;;5.70;3.65;;;-1.60;99.90;;;;;;5048684;28;20021;-71
2024/01/08 12:33:25;;;;;;;6.65;4.05;;;-1.60;99.90;;;;;;5048881;28;20032;-71
2024/01/08 12:35:54;;;;;;;6.65;3.95;;;-1.60;99.90;;;;;;5049153;28;20066;-71
2024/01/08 12:38:21;;;;;;;21.00;9.25;;;-1.60;99.90;;;;;;5052913;28;20076;-75